Time;durP1;ratioP1;P1;durP2;ratioP2;P2;SDS_P1;SDS_P2;PMS_P1;PMS_P2;Temp;Humidity;BMP_temperature;BMP_pressure;BME280_temperature;BME280_humidity;BME280_pressure;Samples;Min_cycle;Max_cycle;Signal;HPM_P1;HPM_P2
2021/12/25 00:02:20;;;;;;;16.17;7.05;;;;;;;4.76;100.00;100451.59;5069678;28;20444;-73
2021/12/25 00:04:45;;;;;;;15.32;7.45;;;;;;;4.76;100.00;100454.25;5088927;28;20032;-73
2021/12/25 00:07:11;;;;;;;14.43;6.65;;;;;;;4.76;100.00;100456.06;5069512;28;20056;-73
2021/12/25 00:09:36;;;;;;;16.33;6.70;;;;;;;4.76;100.00;100456.06;5069550;28;20109;-73
2021/12/25 00:12:02;;;;;;;16.13;7.88;;;;;;;4.75;100.00;100460.53;5069329;28;20090;-73
2021/12/25 00:14:27;;;;;;;17.02;7.38;;;;;;;4.75;100.00;100455.25;5069556;28;20032;-73
2021/12/25 00:16:53;;;;;;;15.02;6.65;;;;;;;4.75;100.00;100457.91;5069505;28;20017;-73
2021/12/25 00:19:18;;;;;;;15.18;7.10;;;;;;;4.74;100.00;100458.06;5069457;28;20063;-73
2021/12/25 00:21:44;;;;;;;13.88;5.53;;;;;;;4.74;100.00;100455.41;5068135;28;20032;-73
2021/12/25 00:24:10;;;;;;;13.57;6.50;;;;;;;4.71;100.00;100455.75;5069434;28;20078;-73
2021/12/25 00:29:15;;;;;;;16.75;6.53;;;;;;;4.68;100.00;100451.63;5069436;28;20048;-73
2021/12/25 00:31:51;;;;;;;14.63;6.55;;;;;;;4.69;100.00;100455.09;5069384;28;20032;-73
2021/12/25 00:34:16;;;;;;;12.27;6.35;;;;;;;4.68;100.00;100454.28;5067936;28;20138;-74
2021/12/25 00:36:42;;;;;;;12.27;5.90;;;;;;;4.64;100.00;100450.34;5069341;28;20138;-73
2021/12/25 00:39:07;;;;;;;15.18;6.35;;;;;;;4.65;100.00;100445.88;5088129;28;20298;-74
2021/12/25 00:41:32;;;;;;;16.77;7.45;;;;;;;4.67;100.00;100449.19;5088592;28;20024;-73
2021/12/25 00:43:58;;;;;;;16.75;7.25;;;;;;;4.63;100.00;100438.09;5088487;28;20058;-74
2021/12/25 00:46:23;;;;;;;16.45;7.03;;;;;;;4.63;100.00;100439.94;5088642;28;20082;-74
2021/12/25 00:48:49;;;;;;;18.23;8.02;;;;;;;4.57;100.00;100433.50;5082482;28;20037;-73
2021/12/25 00:51:14;;;;;;;16.52;8.20;;;;;;;4.50;100.00;100417.50;5089194;28;20031;-73
2021/12/25 00:53:40;;;;;;;14.85;6.82;;;;;;;4.48;100.00;100424.78;5092137;28;20047;-73
2021/12/25 00:56:05;;;;;;;15.70;6.90;;;;;;;4.44;100.00;100427.91;5092150;28;20028;-73
2021/12/25 00:58:30;;;;;;;15.93;7.03;;;;;;;4.41;100.00;100426.44;5091019;28;20275;-73
2021/12/25 01:00:56;;;;;;;17.13;7.70;;;;;;;4.34;100.00;100434.19;5092146;28;20035;-73
2021/12/25 01:03:21;;;;;;;16.55;7.30;;;;;;;4.36;100.00;100437.47;5092086;28;20107;-73
2021/12/25 01:05:47;;;;;;;15.98;7.70;;;;;;;4.36;100.00;100449.88;5091936;28;20070;-74
2021/12/25 01:08:12;;;;;;;17.77;7.85;;;;;;;4.37;100.00;100449.69;5092121;28;20028;-74
2021/12/25 01:10:38;;;;;;;16.58;7.10;;;;;;;4.35;100.00;100454.31;5083401;28;20315;-73
2021/12/25 01:13:12;;;;;;;19.05;8.95;;;;;;;4.41;100.00;100457.28;5071251;28;20323;-73
2021/12/25 01:15:54;;;;;;;18.98;8.40;;;;;;;4.42;100.00;100464.22;5072462;28;20028;-74
2021/12/25 01:26:19;;;;;;;21.23;10.30;;;;;;;4.41;100.00;100454.66;5072204;28;20446;-73
2021/12/25 01:29:16;;;;;;;20.52;9.68;;;;;;;4.41;100.00;100462.56;5091627;28;20085;-73
2021/12/25 01:47:48;;;;;;;22.13;10.40;;;;;;;4.37;100.00;100439.13;5091461;28;20097;-73
2021/12/25 01:50:16;;;;;;;21.23;11.20;;;;;;;4.36;100.00;100448.03;5088126;28;20097;-73
2021/12/25 01:52:41;;;;;;;23.83;10.70;;;;;;;4.35;100.00;100438.50;5091077;28;20110;-74
2021/12/25 01:55:12;;;;;;;23.83;11.85;;;;;;;4.37;100.00;100433.84;5090906;28;20139;-73
2021/12/25 01:57:38;;;;;;;20.73;9.40;;;;;;;4.36;100.00;100442.75;5091008;28;20123;-73
2021/12/25 02:00:13;;;;;;;20.83;10.65;;;;;;;4.38;100.00;100442.59;5071772;28;20742;-74
2021/12/25 02:02:38;;;;;;;18.58;8.82;;;;;;;4.31;100.00;100444.25;5090523;28;20486;-73
2021/12/25 02:05:04;;;;;;;21.13;8.73;;;;;;;4.24;100.00;100448.53;5090750;28;20059;-73
2021/12/25 02:07:30;;;;;;;16.98;8.15;;;;;;;4.24;100.00;100451.19;5090777;28;20437;-73
2021/12/25 02:09:56;;;;;;;19.70;8.82;;;;;;;4.14;100.00;100428.44;5090889;28;20110;-74
2021/12/25 02:12:21;;;;;;;19.70;8.95;;;;;;;4.17;100.00;100446.56;5090684;28;20443;-73
2021/12/25 02:14:48;;;;;;;19.77;9.32;;;;;;;4.15;100.00;100445.09;5090851;28;20036;-73
2021/12/25 02:17:47;;;;;;;17.42;8.80;;;;;;;4.08;100.00;100433.53;5089435;28;20069;-73
2021/12/25 02:20:14;;;;;;;15.82;8.18;;;;;;;4.02;100.00;100448.22;5090197;28;20036;-74
2021/12/25 02:22:40;;;;;;;17.98;6.60;;;;;;;3.98;100.00;100461.88;5090632;28;20020;-73
2021/12/25 02:25:06;;;;;;;15.73;8.07;;;;;;;3.85;100.00;100462.34;5090769;28;20035;-73
2021/12/25 02:27:31;;;;;;;16.45;6.78;;;;;;;3.74;100.00;100459.03;5090611;28;20035;-73
2021/12/25 02:29:56;;;;;;;14.07;7.18;;;;;;;3.67;100.00;100465.16;5090324;28;20068;-73
2021/12/25 02:32:22;;;;;;;14.63;6.07;;;;;;;3.59;100.00;100462.47;5090509;28;20024;-74
2021/12/25 02:34:49;;;;;;;18.00;7.03;;;;;;;3.45;100.00;100456.00;5090199;28;20024;-74
2021/12/25 02:37:15;;;;;;;15.90;7.82;;;;;;;3.44;100.00;100471.00;5090372;28;20050;-74
2021/12/25 02:39:40;;;;;;;15.57;6.93;;;;;;;3.36;100.00;100462.25;5090260;28;20028;-73
2021/12/25 02:42:06;;;;;;;16.38;6.47;;;;;;;3.23;100.00;100450.34;5090227;28;20656;-74
2021/12/25 02:44:31;;;;;;;15.45;6.63;;;;;;;3.26;100.00;100460.56;5090256;28;20031;-74
2021/12/25 02:46:59;;;;;;;16.45;6.90;;;;;;;3.24;100.00;100457.25;5079290;28;20523;-73
2021/12/25 02:49:24;;;;;;;19.65;8.50;;;;;;;3.19;100.00;100462.16;5069509;28;20033;-73
2021/12/25 02:51:52;;;;;;;18.90;8.48;;;;;;;3.14;100.00;100463.63;5089621;28;20047;-73
2021/12/25 02:54:17;;;;;;;20.83;8.80;;;;;;;3.11;100.00;100458.69;5090031;28;20408;-73
2021/12/25 02:56:43;;;;;;;20.23;6.82;;;;;;;3.07;100.00;100469.53;5089805;28;20024;-73
2021/12/25 02:59:15;;;;;;;18.60;8.57;;;;;;;3.08;100.00;100476.44;5090240;28;20463;-73
2021/12/25 03:01:41;;;;;;;15.48;7.18;;;;;;;3.08;99.84;100465.91;5087858;28;20028;-73
2021/12/25 03:04:06;;;;;;;18.63;7.15;;;;;;;3.04;99.98;100474.31;5068833;28;20040;-73
2021/12/25 03:06:37;;;;;;;19.77;8.10;;;;;;;3.03;100.00;100478.72;5070345;28;20360;-73
2021/12/25 03:09:06;;;;;;;21.35;8.25;;;;;;;3.01;100.00;100479.84;5089824;28;20089;-74
2021/12/25 03:11:32;;;;;;;17.65;7.00;;;;;;;2.99;100.00;100476.59;5089690;28;20107;-73
2021/12/25 03:14:10;;;;;;;19.42;7.88;;;;;;;2.96;100.00;100488.25;5089567;28;20490;-73
2021/12/25 03:16:35;;;;;;;15.57;6.70;;;;;;;2.96;100.00;100479.50;5089629;28;20054;-73
2021/12/25 03:19:01;;;;;;;18.55;6.97;;;;;;;2.87;100.00;100481.28;5070013;28;20029;-73
2021/12/25 03:21:27;;;;;;;19.05;10.57;;;;;;;2.84;100.00;100479.78;5070138;28;20112;-73
2021/12/25 03:23:52;;;;;;;15.18;7.47;;;;;;;2.83;100.00;100478.13;5070109;28;20123;-73
2021/12/25 03:26:18;;;;;;;17.75;8.30;;;;;;;2.77;100.00;100484.00;5070020;28;20036;-72
2021/12/25 03:28:45;;;;;;;18.70;9.65;;;;;;;2.71;100.00;100486.44;5070128;28;20040;-73
2021/12/25 03:31:17;;;;;;;21.40;9.45;;;;;;;2.62;100.00;100483.75;5070001;28;20032;-73
2021/12/25 03:33:49;;;;;;;21.50;9.05;;;;;;;2.50;100.00;100486.78;5070366;28;20371;-73
2021/12/25 03:36:15;;;;;;;19.13;9.13;;;;;;;2.40;100.00;100489.50;5069764;28;20032;-74
2021/12/25 03:38:40;;;;;;;19.67;9.10;;;;;;;2.34;100.00;100495.38;5069944;28;20385;-73
2021/12/25 03:41:06;;;;;;;21.88;9.63;;;;;;;2.27;100.00;100497.78;5069631;28;20032;-73
2021/12/25 03:43:34;;;;;;;24.85;9.60;;;;;;;2.23;100.00;100488.56;5078813;28;20399;-73
2021/12/25 03:45:59;;;;;;;20.73;9.82;;;;;;;2.20;100.00;100499.34;5069800;28;20028;-74
2021/12/25 03:57:37;;;;;;;23.98;11.65;;;;;;;2.12;100.00;100501.91;5070061;28;20063;-73
2021/12/25 03:59:08;;;;;;;22.70;10.85;;;;;;;1.94;100.00;100505.38;5089111;28;20039;-73
2021/12/25 04:04:12;;;;;;;24.52;12.30;;;;;;;1.77;100.00;100508.81;5089123;28;20059;-73
2021/12/25 04:06:46;;;;;;;23.05;11.15;;;;;;;1.72;100.00;100514.50;5088607;28;20388;-73
2021/12/25 04:09:22;;;;;;;23.77;12.00;;;;;;;1.66;100.00;100507.22;5088982;28;20020;-73
2021/12/25 04:11:48;;;;;;;24.08;10.75;;;;;;;1.68;100.00;100526.31;5088841;28;20163;-73
2021/12/25 04:14:14;;;;;;;22.63;10.93;;;;;;;1.62;100.00;100526.03;5088870;28;20028;-73
2021/12/25 04:16:39;;;;;;;23.92;10.80;;;;;;;1.60;100.00;100531.47;5089337;28;20027;-73
2021/12/25 04:19:04;;;;;;;24.30;12.35;;;;;;;1.55;100.00;100536.34;5088681;28;20043;-73
2021/12/25 04:21:30;;;;;;;23.38;11.85;;;;;;;1.51;100.00;100538.41;5088781;28;20031;-73
2021/12/25 04:23:55;;;;;;;24.25;13.38;;;;;;;1.54;100.00;100535.47;5088636;28;20031;-73
2021/12/25 04:26:23;;;;;;;24.90;11.05;;;;;;;1.44;100.00;100533.88;5089591;28;20032;-73
2021/12/25 05:04:02;;;;;;;23.30;11.88;;;;;;;1.01;100.00;100566.78;5092452;28;20178;-73
2021/12/25 05:06:28;;;;;;;24.27;10.63;;;;;;;0.98;100.00;100572.34;5092146;28;20643;-74
2021/12/25 05:08:54;;;;;;;26.17;11.93;;;;;;;0.95;100.00;100573.44;5091965;28;20032;-74
2021/12/25 05:11:21;;;;;;;25.58;12.02;;;;;;;0.96;100.00;100569.84;5092163;28;20387;-73
2021/12/25 05:13:49;;;;;;;21.48;10.73;;;;;;;0.94;100.00;100573.56;5090480;28;20041;-74
2021/12/25 05:16:18;;;;;;;24.20;11.70;;;;;;;0.93;100.00;100571.94;5091861;28;20028;-74
2021/12/25 05:18:43;;;;;;;24.20;12.20;;;;;;;0.88;100.00;100565.28;5091795;28;20138;-74
2021/12/25 05:21:09;;;;;;;29.30;14.43;;;;;;;0.90;100.00;100574.84;5091841;28;20111;-74
2021/12/25 05:23:36;;;;;;;25.05;13.18;;;;;;;0.87;100.00;100573.31;5092028;28;20132;-74
2021/12/25 05:26:01;;;;;;;23.80;12.32;;;;;;;0.86;100.00;100572.50;5090397;28;20084;-74
2021/12/25 05:28:35;;;;;;;21.92;11.15;;;;;;;0.85;100.00;100573.44;5091790;28;20036;-75
2021/12/25 05:31:00;;;;;;;22.58;11.52;;;;;;;0.80;100.00;100586.16;5091742;28;20036;-74
2021/12/25 05:33:25;;;;;;;23.00;12.10;;;;;;;0.70;100.00;100582.72;5086799;28;20085;-75
2021/12/25 05:35:51;;;;;;;22.48;10.88;;;;;;;0.66;100.00;100581.34;5072539;28;20349;-75
2021/12/25 05:38:16;;;;;;;19.27;8.95;;;;;;;0.55;100.00;100576.22;5069792;28;20098;-75
2021/12/25 05:40:43;;;;;;;22.65;10.82;;;;;;;0.54;100.00;100592.94;5091196;28;20024;-74
2021/12/25 05:43:08;;;;;;;25.40;11.07;;;;;;;0.46;100.00;100592.81;5091275;28;20051;-75
2021/12/25 05:45:34;;;;;;;22.92;10.60;;;;;;;0.45;100.00;100605.09;5091270;28;20467;-75
2021/12/25 05:47:59;;;;;;;24.05;10.52;;;;;;;0.27;100.00;100583.16;5091178;28;20032;-75
2021/12/25 05:50:26;;;;;;;20.95;10.10;;;;;;;0.28;100.00;100598.72;5080828;28;20064;-75
2021/12/25 05:52:55;;;;;;;21.02;9.05;;;;;;;0.27;100.00;100601.50;5071565;28;20079;-75
2021/12/25 05:55:21;;;;;;;17.60;7.93;;;;;;;0.26;100.00;100599.81;5071690;28;20055;-76
2021/12/25 05:57:46;;;;;;;20.02;8.88;;;;;;;0.15;100.00;100600.78;5071685;28;20376;-75
2021/12/25 06:00:12;;;;;;;22.35;10.55;;;;;;;0.09;100.00;100610.00;5071513;28;20039;-75
2021/12/25 06:02:37;;;;;;;20.35;9.10;;;;;;;0.07;100.00;100611.13;5084519;28;20028;-75
2021/12/25 06:05:06;;;;;;;21.58;10.00;;;;;;;0.05;100.00;100608.63;5083828;28;20035;-76
2021/12/25 06:07:32;;;;;;;18.92;9.10;;;;;;;0.06;100.00;100610.28;5091119;28;20036;-76
2021/12/25 06:09:58;;;;;;;21.08;9.52;;;;;;;-0.01;100.00;100609.97;5090805;28;20177;-76
2021/12/25 06:12:24;;;;;;;17.40;7.45;;;;;;;0.02;100.00;100614.13;5077043;28;20036;-75
2021/12/25 06:14:51;;;;;;;20.35;9.43;;;;;;;0.00;100.00;100623.94;5071287;28;20484;-75
2021/12/25 06:17:17;;;;;;;24.38;9.55;;;;;;;0.01;100.00;100616.91;5071344;28;20058;-76
2021/12/25 06:19:42;;;;;;;21.08;8.82;;;;;;;0.02;100.00;100632.47;5083732;28;20625;-76
2021/12/25 06:22:08;;;;;;;21.20;9.88;;;;;;;0.04;100.00;100627.13;5090637;28;20412;-76
2021/12/25 06:24:33;;;;;;;21.25;10.70;;;;;;;0.04;100.00;100632.38;5090602;28;20086;-76
2021/12/25 06:26:59;;;;;;;22.50;9.05;;;;;;;0.07;100.00;100626.84;5090405;28;20378;-75
2021/12/25 06:29:24;;;;;;;22.38;9.57;;;;;;;0.08;100.00;100634.59;5080055;28;20056;-76
2021/12/25 06:31:50;;;;;;;23.30;11.45;;;;;;;0.10;100.00;100634.44;5069592;28;20028;-76
2021/12/25 06:34:17;;;;;;;25.58;10.68;;;;;;;0.08;100.00;100629.34;5071040;28;20039;-76
2021/12/25 06:36:42;;;;;;;25.67;11.00;;;;;;;0.08;100.00;100624.09;5087947;28;20032;-76
2021/12/25 06:39:13;;;;;;;24.40;10.32;;;;;;;0.05;100.00;100634.00;5079510;28;21081;-76
2021/12/25 06:41:39;;;;;;;25.67;9.88;;;;;;;0.07;100.00;100639.94;5090095;28;20073;-76
2021/12/25 06:44:04;;;;;;;22.35;9.60;;;;;;;0.03;100.00;100635.94;5090484;28;20430;-76
2021/12/25 06:46:30;;;;;;;25.92;12.73;;;;;;;0.03;100.00;100636.78;5089970;28;20027;-76
2021/12/25 06:48:55;;;;;;;22.02;8.90;;;;;;;0.03;100.00;100641.16;5087474;28;20036;-76
2021/12/25 06:51:21;;;;;;;19.92;10.10;;;;;;;0.02;100.00;100650.00;5079754;28;20034;-76
2021/12/25 06:53:46;;;;;;;20.77;8.65;;;;;;;-0.02;100.00;100652.91;5079558;28;20110;-76
2021/12/25 06:56:12;;;;;;;21.95;10.10;;;;;;;-0.04;100.00;100651.38;5070690;28;20368;-76
2021/12/25 06:58:37;;;;;;;23.35;10.45;;;;;;;-0.07;100.00;100656.88;5070440;28;20036;-76
2021/12/25 07:01:03;;;;;;;22.40;10.00;;;;;;;-0.07;100.00;100660.34;5075295;28;20032;-76
2021/12/25 07:03:28;;;;;;;22.27;11.02;;;;;;;-0.05;100.00;100663.66;5076292;28;20040;-76
2021/12/25 07:05:54;;;;;;;19.88;9.40;;;;;;;-0.06;100.00;100669.84;5080227;28;20534;-76
2021/12/25 07:08:19;;;;;;;16.58;7.43;;;;;;;-0.11;100.00;100661.53;5071336;28;20032;-76
2021/12/25 07:10:45;;;;;;;18.88;9.18;;;;;;;-0.14;100.00;100667.06;5070287;28;20028;-76
2021/12/25 07:13:16;;;;;;;15.68;7.78;;;;;;;-0.18;100.00;100670.06;5068829;28;20036;-76
2021/12/25 07:15:41;;;;;;;15.23;6.72;;;;;;;-0.30;100.00;100671.97;5070399;28;20418;-76
2021/12/25 07:18:07;;;;;;;14.25;6.40;;;;;;;-0.33;100.00;100662.56;5070134;28;20028;-76
2021/12/25 07:20:32;;;;;;;16.50;6.63;;;;;;;-0.36;100.00;100675.94;5068696;28;20028;-75
2021/12/25 07:22:58;;;;;;;17.33;7.22;;;;;;;-0.39;100.00;100676.19;5070379;28;20120;-75
2021/12/25 07:25:24;;;;;;;14.48;5.80;;;;;;;-0.43;100.00;100684.44;5079490;28;20027;-76
2021/12/25 07:27:50;;;;;;;11.75;5.63;;;;;;;-0.41;100.00;100693.00;5089485;28;20038;-76
2021/12/25 07:30:16;;;;;;;13.80;6.18;;;;;;;-0.43;100.00;100705.41;5089306;28;20020;-76
2021/12/25 07:32:41;;;;;;;16.65;7.32;;;;;;;-0.51;100.00;100693.78;5089472;28;20043;-75
2021/12/25 07:35:07;;;;;;;16.10;6.82;;;;;;;-0.57;100.00;100702.16;5074230;28;20021;-76
2021/12/25 07:37:34;;;;;;;14.45;6.45;;;;;;;-0.59;100.00;100700.63;5068520;28;20056;-76
2021/12/25 07:40:00;;;;;;;14.48;6.57;;;;;;;-0.60;100.00;100701.56;5069921;28;20024;-76
2021/12/25 07:42:26;;;;;;;13.32;5.50;;;;;;;-0.65;100.00;100709.81;5088977;28;20110;-76
2021/12/25 07:44:55;;;;;;;15.65;5.97;;;;;;;-0.72;100.00;100706.88;5080606;28;20115;-76
2021/12/25 07:47:22;;;;;;;14.98;6.25;;;;;;;-0.74;100.00;100711.41;5080510;28;20024;-76
2021/12/25 07:49:49;;;;;;;15.52;6.47;;;;;;;-0.76;100.00;100712.47;5087954;28;20169;-75
2021/12/25 07:52:15;;;;;;;11.73;5.70;;;;;;;-0.79;100.00;100720.59;5087675;28;20454;-76
2021/12/25 07:54:41;;;;;;;15.98;6.10;;;;;;;-0.84;100.00;100712.28;5088998;28;20177;-75
2021/12/25 07:57:07;;;;;;;15.68;7.00;;;;;;;-0.85;100.00;100710.63;5069742;28;20513;-76
2021/12/25 07:59:32;;;;;;;13.10;5.47;;;;;;;-0.87;100.00;100713.38;5088894;28;20170;-76
2021/12/25 08:01:58;;;;;;;12.85;5.63;;;;;;;-0.87;100.00;100721.22;5088390;28;20081;-75
2021/12/25 08:04:23;;;;;;;12.43;4.85;;;;;;;-0.90;100.00;100722.28;5088954;28;20054;-76
2021/12/25 08:06:49;;;;;;;15.05;6.03;;;;;;;-0.90;100.00;100716.25;5086751;28;20394;-76
2021/12/25 08:09:18;;;;;;;12.13;5.55;;;;;;;-0.88;100.00;100728.25;5069866;28;20503;-75
2021/12/25 08:11:43;;;;;;;15.23;6.50;;;;;;;-0.91;100.00;100727.69;5088869;28;20057;-75
2021/12/25 08:14:08;;;;;;;15.15;6.53;;;;;;;-0.96;100.00;100735.06;5088979;28;20533;-77
2021/12/25 08:16:34;;;;;;;13.77;6.15;;;;;;;-0.97;100.00;100729.00;5088998;28;20032;-77
2021/12/25 08:18:59;;;;;;;13.45;5.28;;;;;;;-1.00;100.00;100731.84;5088946;28;20028;-76
2021/12/25 08:21:24;;;;;;;12.73;5.88;;;;;;;-1.02;100.00;100732.94;5063102;28;20103;-74
2021/12/25 08:23:50;;;;;;;13.93;7.28;;;;;;;-1.02;100.00;100732.94;5069609;28;20036;-74
2021/12/25 08:26:15;;;;;;;13.60;5.63;;;;;;;-1.07;100.00;100735.94;5069641;28;20103;-73
2021/12/25 08:28:41;;;;;;;13.52;5.72;;;;;;;-1.05;100.00;100744.47;5068904;28;20083;-74
2021/12/25 08:31:06;;;;;;;11.95;5.68;;;;;;;-1.02;100.00;100751.25;5078667;28;20036;-75
2021/12/25 08:33:32;;;;;;;13.68;6.10;;;;;;;-1.12;100.00;100749.41;5076229;28;20021;-74
2021/12/25 08:35:57;;;;;;;11.40;6.70;;;;;;;-1.02;100.00;100749.50;5083936;28;20035;-74
2021/12/25 08:38:23;;;;;;;12.43;5.18;;;;;;;-1.04;99.62;100755.81;5078547;28;20453;-76
2021/12/25 08:40:48;;;;;;;10.95;4.38;;;;;;;-1.04;99.71;100761.03;5083839;28;20055;-75
2021/12/25 08:43:16;;;;;;;13.05;5.13;;;;;;;-1.08;99.18;100762.22;5077196;28;20476;-76
2021/12/25 08:48:14;;;;;;;10.25;5.50;;;;;;;-1.14;99.76;100753.91;5080281;28;20883;-76
2021/12/25 08:50:43;;;;;;;12.63;6.50;;;;;;;-1.05;98.90;100775.06;5085653;28;20504;-76
2021/12/25 08:53:08;;;;;;;13.50;5.22;;;;;;;-1.20;99.00;100759.66;5074469;28;20032;-74
2021/12/25 08:55:34;;;;;;;13.77;5.32;;;;;;;-1.13;98.81;100759.97;5076798;28;20125;-76
2021/12/25 08:57:59;;;;;;;13.60;6.68;;;;;;;-1.13;98.74;100771.28;5082638;28;20059;-76
2021/12/25 09:00:24;;;;;;;10.95;5.53;;;;;;;-1.16;98.22;100775.94;5069194;28;20396;-73
2021/12/25 09:02:51;;;;;;;10.45;5.00;;;;;;;-1.15;98.52;100782.84;5088614;28;20032;-75
2021/12/25 09:05:17;;;;;;;10.75;5.88;;;;;;;-1.14;98.57;100782.69;5088528;28;20023;-75
2021/12/25 09:07:42;;;;;;;12.18;5.82;;;;;;;-1.16;98.06;100794.25;5081097;28;20035;-76
2021/12/25 09:10:08;;;;;;;13.07;5.82;;;;;;;-1.14;98.01;100781.88;5069139;28;20475;-74
2021/12/25 09:12:39;;;;;;;13.40;7.80;;;;;;;-1.17;97.03;100795.22;5069355;28;20075;-74
2021/12/25 09:15:05;;;;;;;22.92;5.50;;;;;;;-1.22;97.08;100789.50;5077111;28;20028;-75
2021/12/25 09:17:30;;;;;;;13.73;5.82;;;;;;;-1.22;97.11;100799.97;5060952;28;20110;-68
2021/12/25 09:19:56;;;;;;;11.48;5.65;;;;;;;-1.21;97.50;100799.84;5074979;28;20032;-75
2021/12/25 09:22:21;;;;;;;11.50;6.18;;;;;;;-1.18;96.73;100807.47;5076789;28;20382;-74
2021/12/25 09:24:46;;;;;;;13.55;5.55;;;;;;;-1.26;97.06;100803.78;5076745;28;20039;-74
2021/12/25 09:27:12;;;;;;;13.60;6.50;;;;;;;-1.26;96.35;100803.78;5077199;28;20028;-73
2021/12/25 09:29:37;;;;;;;10.07;5.07;;;;;;;-1.29;96.08;100806.63;5076472;28;20109;-74
2021/12/25 09:32:04;;;;;;;11.77;5.80;;;;;;;-1.25;96.53;100802.84;5075238;28;20025;-74
2021/12/25 09:34:29;;;;;;;12.30;5.35;;;;;;;-1.32;96.05;100805.91;5075221;28;20036;-74
2021/12/25 09:36:54;;;;;;;13.45;5.95;;;;;;;-1.34;95.95;100799.16;5075642;28;20020;-74
2021/12/25 09:39:20;;;;;;;10.90;4.70;;;;;;;-1.32;96.55;100812.94;5076564;28;20076;-73
2021/12/25 09:41:45;;;;;;;11.88;5.10;;;;;;;-1.30;96.20;100805.81;5075840;28;20035;-73
2021/12/25 09:44:11;;;;;;;13.32;5.90;;;;;;;-1.31;96.59;100806.78;5076712;28;20020;-73
2021/12/25 09:46:37;;;;;;;13.20;6.53;;;;;;;-1.30;95.94;100807.59;5076395;28;20051;-73
2021/12/25 09:49:03;;;;;;;11.00;5.38;;;;;;;-1.30;95.95;100804.97;5075161;28;20097;-73
2021/12/25 09:51:28;;;;;;;11.50;5.85;;;;;;;-1.27;96.12;100809.97;5077007;28;20449;-73
2021/12/25 09:53:59;;;;;;;12.90;5.43;;;;;;;-1.28;96.14;100805.66;5076176;28;21097;-73
2021/12/25 09:56:25;;;;;;;13.48;5.72;;;;;;;-1.34;95.10;100791.28;5075486;28;20456;-73
2021/12/25 09:58:50;;;;;;;10.88;5.65;;;;;;;-1.26;95.79;100801.16;5075396;28;20056;-73
2021/12/25 10:01:45;;;;;;;12.30;4.97;;;;;;;-1.30;95.04;100810.22;5075626;28;20039;-73
2021/12/25 10:04:46;;;;;;;12.38;5.50;;;;;;;-1.32;94.57;100800.69;5075845;28;20511;-73
2021/12/25 10:07:21;;;;;;;11.75;4.47;;;;;;;-1.29;94.66;100801.41;5073753;28;20025;-73
2021/12/25 10:10:10;;;;;;;11.20;5.07;;;;;;;-1.32;94.84;100811.16;5074753;28;20016;-73
2021/12/25 10:12:43;;;;;;;10.73;5.43;;;;;;;-1.34;94.99;100813.09;5075062;28;20035;-73
2021/12/25 10:15:12;;;;;;;10.57;4.78;;;;;;;-1.25;93.67;100818.53;5075437;28;20032;-73
2021/12/25 10:18:04;;;;;;;8.82;4.40;;;;;;;-1.29;94.08;100827.56;5075947;28;20205;-73
2021/12/25 10:20:34;;;;;;;10.00;5.15;;;;;;;-1.33;94.52;100819.97;5073453;28;20093;-74
2021/12/25 10:23:10;;;;;;;11.35;4.80;;;;;;;-1.23;94.47;100829.69;5074619;28;20034;-75
2021/12/25 10:25:50;;;;;;;10.60;4.88;;;;;;;-1.22;94.17;100828.75;5074420;28;20047;-75
2021/12/25 10:28:20;;;;;;;8.32;4.10;;;;;;;-1.25;92.75;100826.38;5074573;28;20032;-75
2021/12/25 10:30:55;;;;;;;12.43;4.45;;;;;;;-1.26;93.59;100836.00;5074713;28;20467;-75
2021/12/25 10:33:42;;;;;;;9.13;4.80;;;;;;;-1.25;93.54;100827.22;5075086;28;20021;-75
2021/12/25 10:36:24;;;;;;;12.68;4.65;;;;;;;-1.24;92.96;100833.28;5074310;28;20028;-75
2021/12/25 10:39:04;;;;;;;11.73;5.55;;;;;;;-1.18;93.01;100832.78;5074729;28;20069;-75
2021/12/25 10:41:30;;;;;;;9.38;3.83;;;;;;;-1.16;93.32;100836.94;5074819;28;20024;-75
2021/12/25 10:44:15;;;;;;;10.23;4.75;;;;;;;-1.11;93.12;100831.34;5075175;28;20031;-75
2021/12/25 10:46:58;;;;;;;10.65;4.60;;;;;;;-1.02;93.25;100827.16;5073842;28;20574;-75
2021/12/25 10:49:29;;;;;;;8.32;3.20;;;;;;;-1.00;92.60;100840.97;5074921;28;20484;-75
2021/12/25 10:51:55;;;;;;;14.20;3.92;;;;;;;-0.96;92.48;100834.53;5073835;28;20509;-75
2021/12/25 10:54:37;;;;;;;7.45;4.20;;;;;;;-0.94;91.92;100832.63;5073979;28;20036;-75
2021/12/25 10:57:03;;;;;;;5.45;3.20;;;;;;;-0.98;92.06;100837.28;5074529;28;20028;-74
2021/12/25 10:59:41;;;;;;;4.35;2.55;;;;;;;-1.00;90.43;100838.34;5073911;28;20035;-74
2021/12/25 11:02:07;;;;;;;5.90;3.15;;;;;;;-1.00;90.26;100833.09;5073713;28;20051;-75
2021/12/25 11:04:39;;;;;;;9.23;3.50;;;;;;;-1.08;90.60;100819.81;5075127;28;20111;-75
2021/12/25 11:07:15;;;;;;;3.60;2.15;;;;;;;-0.98;90.27;100842.50;5074257;28;20103;-74
2021/12/25 11:10:00;;;;;;;10.18;3.70;;;;;;;-1.08;89.90;100828.47;5073746;28;20545;-74
2021/12/25 11:12:26;;;;;;;6.30;3.03;;;;;;;-1.10;90.35;100822.56;5074313;28;20305;-75
2021/12/25 11:14:51;;;;;;;9.25;3.33;;;;;;;-1.12;90.95;100827.91;5073990;28;20035;-74
2021/12/25 11:17:24;;;;;;;5.32;2.72;;;;;;;-1.03;90.34;100815.88;5073865;28;20066;-74
2021/12/25 11:19:59;;;;;;;5.80;2.22;;;;;;;-0.95;91.38;100810.00;5073968;28;20095;-74
2021/12/25 11:22:26;;;;;;;4.93;2.65;;;;;;;-0.85;89.96;100805.72;5074255;28;20095;-74
2021/12/25 11:24:52;;;;;;;6.30;2.80;;;;;;;-0.82;89.72;100815.09;5073761;28;20115;-74
2021/12/25 11:27:18;;;;;;;4.50;2.47;;;;;;;-0.80;88.85;100821.06;5073253;28;20032;-73
2021/12/25 11:29:44;;;;;;;5.45;2.72;;;;;;;-0.73;88.06;100812.59;5073335;28;20481;-74
2021/12/25 11:32:11;;;;;;;3.80;2.45;;;;;;;-0.71;87.76;100822.91;5074398;28;20028;-76
2021/12/25 11:34:37;;;;;;;4.00;2.00;;;;;;;-0.69;87.59;100821.84;5073331;28;20032;-76
2021/12/25 11:37:03;;;;;;;3.42;2.30;;;;;;;-0.65;87.50;100813.75;5073640;28;20471;-74
2021/12/25 11:39:30;;;;;;;3.78;2.13;;;;;;;-0.65;87.66;100813.75;5074595;28;20511;-75
2021/12/25 11:42:02;;;;;;;6.10;1.90;;;;;;;-0.57;88.22;100825.25;5073555;28;20032;-75
2021/12/25 11:44:40;;;;;;;2.22;1.73;;;;;;;-0.52;87.35;100817.03;5074280;28;20036;-75
2021/12/25 11:47:07;;;;;;;2.60;1.95;;;;;;;-0.49;86.97;100822.84;5073374;28;20024;-74
2021/12/25 11:49:50;;;;;;;3.92;1.77;;;;;;;-0.46;87.36;100825.19;5073734;28;20039;-70
2021/12/25 11:52:19;;;;;;;3.63;2.00;;;;;;;-0.45;86.96;100826.03;5074339;28;20048;-75
2021/12/25 11:57:49;;;;;;;4.03;2.03;;;;;;;-0.48;86.96;100823.66;5072763;28;20028;-75
2021/12/25 12:00:42;;;;;;;5.68;2.15;;;;;;;-0.48;87.54;100811.38;5073207;28;20044;-75
2021/12/25 12:03:09;;;;;;;3.22;2.30;;;;;;;-0.43;86.50;100807.56;5072282;28;20052;-74
2021/12/25 12:05:36;;;;;;;4.00;1.80;;;;;;;-0.37;87.32;100809.69;5072695;28;20111;-74
2021/12/25 12:08:11;;;;;;;3.30;2.30;;;;;;;-0.31;85.71;100806.56;5074526;28;20033;-73
2021/12/25 12:10:45;;;;;;;3.72;2.15;;;;;;;-0.29;85.67;100800.25;5072927;28;20020;-74
2021/12/25 12:13:17;;;;;;;3.05;1.95;;;;;;;-0.29;85.68;100804.63;5073102;28;20031;-76
2021/12/25 12:15:49;;;;;;;3.50;2.40;;;;;;;-0.20;85.06;100793.41;5073112;28;20113;-77
2021/12/25 12:18:27;;;;;;;3.22;1.83;;;;;;;-0.21;84.84;100794.34;5073020;28;20060;-76
2021/12/25 12:21:16;;;;;;;3.50;1.92;;;;;;;-0.18;84.66;100795.88;5074314;28;20020;-75
2021/12/25 12:26:45;;;;;;;7.15;2.10;;;;;;;-0.13;84.20;100807.66;5073659;28;20383;-76
2021/12/25 12:29:12;;;;;;;4.15;2.20;;;;;;;-0.07;84.06;100811.56;5073253;28;20115;-74
2021/12/25 12:31:41;;;;;;;1.83;1.33;;;;;;;-0.06;82.69;100805.34;5073850;28;20031;-73
2021/12/25 12:34:29;;;;;;;4.78;2.28;;;;;;;-0.03;84.73;100807.69;5072797;28;20066;-74
2021/12/25 12:37:16;;;;;;;3.50;1.77;;;;;;;0.05;84.75;100810.50;5074258;28;20478;-76
2021/12/25 12:39:59;;;;;;;2.80;1.70;;;;;;;0.03;81.98;100803.72;5072111;28;20016;-76
2021/12/25 12:42:40;;;;;;;4.47;2.05;;;;;;;0.04;81.89;100803.59;5073507;28;20032;-75
2021/12/25 12:45:14;;;;;;;2.95;1.63;;;;;;;0.02;81.99;100796.81;5072955;28;20421;-74